sensor_id;sensor_type;location;lat;lon;timestamp;P1;durP1;ratioP1;P2;durP2;ratioP2
48847;SDS011;36611;51.638;5.784;2023-04-22T00:00:53;2.15;;;1.95;;
48847;SDS011;36611;51.638;5.784;2023-04-22T00:03:20;1.58;;;1.48;;
48847;SDS011;36611;51.638;5.784;2023-04-22T00:05:49;1.70;;;1.60;;
48847;SDS011;36611;51.638;5.784;2023-04-22T00:08:16;1.80;;;1.70;;
48847;SDS011;36611;51.638;5.784;2023-04-22T00:10:43;1.52;;;1.42;;
48847;SDS011;36611;51.638;5.784;2023-04-22T00:13:09;1.80;;;1.60;;
48847;SDS011;36611;51.638;5.784;2023-04-22T00:15:36;1.75;;;1.60;;
48847;SDS011;36611;51.638;5.784;2023-04-22T00:18:03;1.88;;;1.70;;
48847;SDS011;36611;51.638;5.784;2023-04-22T00:20:29;1.77;;;1.65;;
48847;SDS011;36611;51.638;5.784;2023-04-22T00:22:58;1.90;;;1.70;;
48847;SDS011;36611;51.638;5.784;2023-04-22T00:25:24;2.03;;;1.85;;
48847;SDS011;36611;51.638;5.784;2023-04-22T00:27:51;1.77;;;1.58;;
48847;SDS011;36611;51.638;5.784;2023-04-22T00:30:18;1.95;;;1.75;;
48847;SDS011;36611;51.638;5.784;2023-04-22T00:32:44;1.40;;;1.30;;
48847;SDS011;36611;51.638;5.784;2023-04-22T00:35:12;1.73;;;1.63;;
48847;SDS011;36611;51.638;5.784;2023-04-22T00:37:38;1.80;;;1.70;;
48847;SDS011;36611;51.638;5.784;2023-04-22T00:40:05;1.70;;;1.60;;
48847;SDS011;36611;51.638;5.784;2023-04-22T00:42:32;1.52;;;1.42;;
48847;SDS011;36611;51.638;5.784;2023-04-22T00:44:59;1.70;;;1.60;;
48847;SDS011;36611;51.638;5.784;2023-04-22T00:47:26;1.50;;;1.40;;
48847;SDS011;36611;51.638;5.784;2023-04-22T00:49:53;1.65;;;1.50;;
48847;SDS011;36611;51.638;5.784;2023-04-22T00:52:20;3.00;;;1.75;;
48847;SDS011;36611;51.638;5.784;2023-04-22T00:54:47;2.10;;;1.70;;
48847;SDS011;36611;51.638;5.784;2023-04-22T00:57:14;1.90;;;1.60;;
48847;SDS011;36611;51.638;5.784;2023-04-22T00:59:42;1.52;;;1.42;;
48847;SDS011;36611;51.638;5.784;2023-04-22T01:02:09;1.77;;;1.67;;
48847;SDS011;36611;51.638;5.784;2023-04-22T01:04:37;1.50;;;1.35;;
48847;SDS011;36611;51.638;5.784;2023-04-22T01:07:04;1.60;;;1.50;;
48847;SDS011;36611;51.638;5.784;2023-04-22T01:09:32;1.95;;;1.60;;
48847;SDS011;36611;51.638;5.784;2023-04-22T01:11:58;1.70;;;1.60;;
48847;SDS011;36611;51.638;5.784;2023-04-22T01:14:26;1.63;;;1.30;;
48847;SDS011;36611;51.638;5.784;2023-04-22T01:16:54;1.90;;;1.70;;
48847;SDS011;36611;51.638;5.784;2023-04-22T01:19:21;1.92;;;1.63;;
48847;SDS011;36611;51.638;5.784;2023-04-22T01:21:51;1.75;;;1.60;;
48847;SDS011;36611;51.638;5.784;2023-04-22T01:24:19;1.63;;;1.52;;
48847;SDS011;36611;51.638;5.784;2023-04-22T01:26:46;2.03;;;1.73;;
48847;SDS011;36611;51.638;5.784;2023-04-22T01:29:14;1.38;;;1.27;;
48847;SDS011;36611;51.638;5.784;2023-04-22T01:31:40;2.15;;;1.77;;
48847;SDS011;36611;51.638;5.784;2023-04-22T01:34:08;1.45;;;1.30;;
48847;SDS011;36611;51.638;5.784;2023-04-22T01:36:34;1.67;;;1.58;;
48847;SDS011;36611;51.638;5.784;2023-04-22T01:39:01;1.45;;;1.30;;
48847;SDS011;36611;51.638;5.784;2023-04-22T01:41:28;1.73;;;1.63;;
48847;SDS011;36611;51.638;5.784;2023-04-22T01:43:56;1.75;;;1.52;;
48847;SDS011;36611;51.638;5.784;2023-04-22T01:46:26;1.65;;;1.55;;
48847;SDS011;36611;51.638;5.784;2023-04-22T01:48:52;1.50;;;1.40;;
48847;SDS011;36611;51.638;5.784;2023-04-22T01:51:20;1.65;;;1.42;;
48847;SDS011;36611;51.638;5.784;2023-04-22T01:53:47;1.60;;;1.40;;
48847;SDS011;36611;51.638;5.784;2023-04-22T01:56:14;1.60;;;1.50;;
48847;SDS011;36611;51.638;5.784;2023-04-22T01:58:41;1.70;;;1.60;;
48847;SDS011;36611;51.638;5.784;2023-04-22T02:01:08;1.40;;;1.30;;
48847;SDS011;36611;51.638;5.784;2023-04-22T02:03:36;1.60;;;1.50;;
48847;SDS011;36611;51.638;5.784;2023-04-22T02:06:03;1.40;;;1.30;;
48847;SDS011;36611;51.638;5.784;2023-04-22T02:08:29;1.73;;;1.50;;
48847;SDS011;36611;51.638;5.784;2023-04-22T02:10:56;1.63;;;1.33;;
48847;SDS011;36611;51.638;5.784;2023-04-22T02:13:24;1.58;;;1.48;;
48847;SDS011;36611;51.638;5.784;2023-04-22T02:15:51;1.40;;;1.30;;
48847;SDS011;36611;51.638;5.784;2023-04-22T02:18:18;1.40;;;1.30;;
48847;SDS011;36611;51.638;5.784;2023-04-22T02:20:44;1.52;;;1.25;;
48847;SDS011;36611;51.638;5.784;2023-04-22T02:23:11;1.67;;;1.50;;
48847;SDS011;36611;51.638;5.784;2023-04-22T02:25:37;1.50;;;1.40;;
48847;SDS011;36611;51.638;5.784;2023-04-22T02:28:04;1.33;;;1.23;;
48847;SDS011;36611;51.638;5.784;2023-04-22T02:30:31;1.40;;;1.30;;
48847;SDS011;36611;51.638;5.784;2023-04-22T02:32:57;1.30;;;1.20;;
48847;SDS011;36611;51.638;5.784;2023-04-22T02:35:25;1.65;;;1.55;;
48847;SDS011;36611;51.638;5.784;2023-04-22T02:37:51;1.35;;;1.25;;
48847;SDS011;36611;51.638;5.784;2023-04-22T02:40:20;1.60;;;1.40;;
48847;SDS011;36611;51.638;5.784;2023-04-22T02:42:47;1.33;;;1.23;;
48847;SDS011;36611;51.638;5.784;2023-04-22T02:45:13;1.40;;;1.30;;
48847;SDS011;36611;51.638;5.784;2023-04-22T02:47:42;1.67;;;1.35;;
48847;SDS011;36611;51.638;5.784;2023-04-22T02:50:08;1.48;;;1.30;;
48847;SDS011;36611;51.638;5.784;2023-04-22T02:52:35;1.48;;;1.30;;
48847;SDS011;36611;51.638;5.784;2023-04-22T02:55:02;1.60;;;1.40;;
48847;SDS011;36611;51.638;5.784;2023-04-22T02:57:29;1.30;;;1.20;;
48847;SDS011;36611;51.638;5.784;2023-04-22T02:59:55;1.17;;;1.08;;
48847;SDS011;36611;51.638;5.784;2023-04-22T03:02:23;1.55;;;1.45;;
48847;SDS011;36611;51.638;5.784;2023-04-22T03:05:15;1.40;;;1.30;;
48847;SDS011;36611;51.638;5.784;2023-04-22T03:07:43;1.83;;;1.42;;
48847;SDS011;36611;51.638;5.784;2023-04-22T03:10:10;1.60;;;1.50;;
48847;SDS011;36611;51.638;5.784;2023-04-22T03:12:38;1.30;;;1.20;;
48847;SDS011;36611;51.638;5.784;2023-04-22T03:15:05;1.23;;;1.13;;
48847;SDS011;36611;51.638;5.784;2023-04-22T03:17:33;1.17;;;1.08;;
48847;SDS011;36611;51.638;5.784;2023-04-22T03:20:05;1.20;;;1.10;;
48847;SDS011;36611;51.638;5.784;2023-04-22T03:22:32;1.23;;;1.13;;
48847;SDS011;36611;51.638;5.784;2023-04-22T03:25:01;1.20;;;1.10;;
48847;SDS011;36611;51.638;5.784;2023-04-22T03:27:28;1.10;;;1.00;;
48847;SDS011;36611;51.638;5.784;2023-04-22T03:29:55;1.33;;;1.23;;
48847;SDS011;36611;51.638;5.784;2023-04-22T03:32:21;1.40;;;1.20;;
48847;SDS011;36611;51.638;5.784;2023-04-22T03:34:57;1.48;;;1.38;;
48847;SDS011;36611;51.638;5.784;2023-04-22T03:37:25;1.20;;;1.10;;
48847;SDS011;36611;51.638;5.784;2023-04-22T03:39:51;1.30;;;1.13;;
48847;SDS011;36611;51.638;5.784;2023-04-22T03:42:18;1.27;;;1.17;;
48847;SDS011;36611;51.638;5.784;2023-04-22T03:44:44;1.40;;;1.30;;
48847;SDS011;36611;51.638;5.784;2023-04-22T03:47:12;1.42;;;1.10;;
48847;SDS011;36611;51.638;5.784;2023-04-22T03:49:44;1.35;;;1.25;;
48847;SDS011;36611;51.638;5.784;2023-04-22T03:52:11;1.38;;;1.27;;
48847;SDS011;36611;51.638;5.784;2023-04-22T03:54:44;1.48;;;1.38;;
48847;SDS011;36611;51.638;5.784;2023-04-22T03:57:11;1.20;;;1.10;;
48847;SDS011;36611;51.638;5.784;2023-04-22T03:59:38;1.30;;;1.08;;
48847;SDS011;36611;51.638;5.784;2023-04-22T04:02:06;1.35;;;1.25;;
48847;SDS011;36611;51.638;5.784;2023-04-22T04:04:33;1.35;;;1.25;;
48847;SDS011;36611;51.638;5.784;2023-04-22T04:07:00;1.25;;;1.15;;
48847;SDS011;36611;51.638;5.784;2023-04-22T04:09:27;1.40;;;1.30;;
48847;SDS011;36611;51.638;5.784;2023-04-22T04:11:54;1.42;;;1.10;;
48847;SDS011;36611;51.638;5.784;2023-04-22T04:14:23;1.40;;;1.10;;
48847;SDS011;36611;51.638;5.784;2023-04-22T04:16:50;1.30;;;1.10;;
48847;SDS011;36611;51.638;5.784;2023-04-22T04:19:24;1.45;;;1.30;;
48847;SDS011;36611;51.638;5.784;2023-04-22T04:21:50;1.30;;;1.20;;
48847;SDS011;36611;51.638;5.784;2023-04-22T04:24:18;2.08;;;1.30;;
48847;SDS011;36611;51.638;5.784;2023-04-22T04:26:48;1.20;;;1.10;;
48847;SDS011;36611;51.638;5.784;2023-04-22T04:29:22;1.45;;;1.35;;
48847;SDS011;36611;51.638;5.784;2023-04-22T04:32:06;1.70;;;1.25;;
48847;SDS011;36611;51.638;5.784;2023-04-22T04:34:36;1.27;;;1.17;;
48847;SDS011;36611;51.638;5.784;2023-04-22T04:37:05;1.30;;;0.98;;
48847;SDS011;36611;51.638;5.784;2023-04-22T04:39:41;1.30;;;1.20;;
48847;SDS011;36611;51.638;5.784;2023-04-22T04:42:09;1.33;;;1.23;;
48847;SDS011;36611;51.638;5.784;2023-04-22T04:44:45;1.20;;;1.10;;
48847;SDS011;36611;51.638;5.784;2023-04-22T04:47:18;1.10;;;1.00;;
48847;SDS011;36611;51.638;5.784;2023-04-22T04:49:45;1.33;;;1.23;;
48847;SDS011;36611;51.638;5.784;2023-04-22T04:52:12;1.20;;;1.10;;
48847;SDS011;36611;51.638;5.784;2023-04-22T04:54:39;1.30;;;1.20;;
48847;SDS011;36611;51.638;5.784;2023-04-22T04:57:05;1.30;;;1.20;;
48847;SDS011;36611;51.638;5.784;2023-04-22T04:59:32;1.25;;;1.10;;
48847;SDS011;36611;51.638;5.784;2023-04-22T05:01:59;1.23;;;1.13;;
48847;SDS011;36611;51.638;5.784;2023-04-22T05:04:27;1.10;;;1.00;;
48847;SDS011;36611;51.638;5.784;2023-04-22T05:06:54;1.13;;;1.02;;
48847;SDS011;36611;51.638;5.784;2023-04-22T05:09:20;1.27;;;1.17;;
48847;SDS011;36611;51.638;5.784;2023-04-22T05:11:48;1.15;;;1.05;;
48847;SDS011;36611;51.638;5.784;2023-04-22T05:14:18;1.13;;;1.02;;
48847;SDS011;36611;51.638;5.784;2023-04-22T05:16:46;1.10;;;1.00;;
48847;SDS011;36611;51.638;5.784;2023-04-22T05:19:13;1.27;;;1.10;;
48847;SDS011;36611;51.638;5.784;2023-04-22T05:21:41;1.10;;;1.00;;
48847;SDS011;36611;51.638;5.784;2023-04-22T05:24:07;1.05;;;0.95;;
48847;SDS011;36611;51.638;5.784;2023-04-22T05:26:34;1.25;;;1.15;;
48847;SDS011;36611;51.638;5.784;2023-04-22T05:29:07;1.30;;;1.20;;
48847;SDS011;36611;51.638;5.784;2023-04-22T05:31:34;1.20;;;1.10;;
48847;SDS011;36611;51.638;5.784;2023-04-22T05:34:00;1.10;;;1.00;;
48847;SDS011;36611;51.638;5.784;2023-04-22T05:36:27;1.10;;;1.00;;
48847;SDS011;36611;51.638;5.784;2023-04-22T05:38:57;1.00;;;0.90;;
48847;SDS011;36611;51.638;5.784;2023-04-22T05:41:24;1.10;;;1.00;;
48847;SDS011;36611;51.638;5.784;2023-04-22T05:43:52;1.60;;;1.50;;
48847;SDS011;36611;51.638;5.784;2023-04-22T05:46:19;1.08;;;0.98;;
48847;SDS011;36611;51.638;5.784;2023-04-22T05:48:47;1.20;;;1.10;;
48847;SDS011;36611;51.638;5.784;2023-04-22T05:51:32;1.08;;;0.93;;
48847;SDS011;36611;51.638;5.784;2023-04-22T05:53:59;1.10;;;1.00;;
48847;SDS011;36611;51.638;5.784;2023-04-22T05:56:26;1.13;;;1.02;;
48847;SDS011;36611;51.638;5.784;2023-04-22T05:58:53;1.10;;;1.00;;
48847;SDS011;36611;51.638;5.784;2023-04-22T06:01:21;0.90;;;0.90;;
48847;SDS011;36611;51.638;5.784;2023-04-22T06:06:24;1.15;;;1.05;;
48847;SDS011;36611;51.638;5.784;2023-04-22T06:08:51;1.08;;;0.98;;
48847;SDS011;36611;51.638;5.784;2023-04-22T06:11:18;1.02;;;0.85;;
48847;SDS011;36611;51.638;5.784;2023-04-22T06:13:45;1.27;;;1.10;;
48847;SDS011;36611;51.638;5.784;2023-04-22T06:16:12;1.10;;;1.00;;
48847;SDS011;36611;51.638;5.784;2023-04-22T06:18:38;1.10;;;1.00;;
48847;SDS011;36611;51.638;5.784;2023-04-22T06:21:09;1.25;;;1.13;;
48847;SDS011;36611;51.638;5.784;2023-04-22T06:23:36;0.95;;;0.90;;
48847;SDS011;36611;51.638;5.784;2023-04-22T06:26:03;1.45;;;1.20;;
48847;SDS011;36611;51.638;5.784;2023-04-22T06:28:30;1.17;;;1.08;;
48847;SDS011;36611;51.638;5.784;2023-04-22T06:31:02;1.00;;;0.90;;
48847;SDS011;36611;51.638;5.784;2023-04-22T06:33:29;1.05;;;0.95;;
48847;SDS011;36611;51.638;5.784;2023-04-22T06:35:55;1.00;;;0.90;;
48847;SDS011;36611;51.638;5.784;2023-04-22T06:38:22;1.00;;;0.90;;
48847;SDS011;36611;51.638;5.784;2023-04-22T06:41:24;1.27;;;1.00;;
48847;SDS011;36611;51.638;5.784;2023-04-22T06:43:55;1.05;;;0.90;;
48847;SDS011;36611;51.638;5.784;2023-04-22T06:46:48;1.00;;;0.90;;
48847;SDS011;36611;51.638;5.784;2023-04-22T06:49:27;1.20;;;1.10;;
48847;SDS011;36611;51.638;5.784;2023-04-22T06:52:12;1.00;;;0.90;;
48847;SDS011;36611;51.638;5.784;2023-04-22T06:54:39;1.20;;;1.08;;
48847;SDS011;36611;51.638;5.784;2023-04-22T06:57:05;1.05;;;0.98;;
48847;SDS011;36611;51.638;5.784;2023-04-22T06:59:33;0.80;;;0.80;;
48847;SDS011;36611;51.638;5.784;2023-04-22T07:02:00;1.00;;;0.90;;
48847;SDS011;36611;51.638;5.784;2023-04-22T07:04:29;1.00;;;0.90;;
48847;SDS011;36611;51.638;5.784;2023-04-22T07:06:58;1.08;;;0.93;;
48847;SDS011;36611;51.638;5.784;2023-04-22T07:09:25;1.25;;;0.93;;
48847;SDS011;36611;51.638;5.784;2023-04-22T07:11:51;1.25;;;1.10;;
48847;SDS011;36611;51.638;5.784;2023-04-22T07:14:19;1.08;;;0.90;;
48847;SDS011;36611;51.638;5.784;2023-04-22T07:16:46;0.88;;;0.85;;
48847;SDS011;36611;51.638;5.784;2023-04-22T07:19:12;0.90;;;0.90;;
48847;SDS011;36611;51.638;5.784;2023-04-22T07:21:39;1.02;;;0.93;;
48847;SDS011;36611;51.638;5.784;2023-04-22T07:24:06;0.85;;;0.82;;
48847;SDS011;36611;51.638;5.784;2023-04-22T07:26:37;1.23;;;0.93;;
48847;SDS011;36611;51.638;5.784;2023-04-22T07:29:05;1.17;;;0.90;;
48847;SDS011;36611;51.638;5.784;2023-04-22T07:31:33;0.95;;;0.80;;
48847;SDS011;36611;51.638;5.784;2023-04-22T07:34:01;1.40;;;1.20;;
48847;SDS011;36611;51.638;5.784;2023-04-22T07:36:27;1.20;;;1.05;;
48847;SDS011;36611;51.638;5.784;2023-04-22T07:38:54;1.27;;;1.08;;
48847;SDS011;36611;51.638;5.784;2023-04-22T07:41:21;1.27;;;1.13;;
48847;SDS011;36611;51.638;5.784;2023-04-22T07:43:47;1.10;;;1.00;;
48847;SDS011;36611;51.638;5.784;2023-04-22T07:46:14;1.10;;;1.00;;
48847;SDS011;36611;51.638;5.784;2023-04-22T07:48:40;1.35;;;1.10;;
48847;SDS011;36611;51.638;5.784;2023-04-22T07:51:08;0.80;;;0.70;;
48847;SDS011;36611;51.638;5.784;2023-04-22T07:53:34;1.10;;;1.00;;
48847;SDS011;36611;51.638;5.784;2023-04-22T07:56:01;1.15;;;1.00;;
48847;SDS011;36611;51.638;5.784;2023-04-22T07:58:28;1.00;;;0.90;;
48847;SDS011;36611;51.638;5.784;2023-04-22T08:00:54;1.10;;;0.98;;
48847;SDS011;36611;51.638;5.784;2023-04-22T08:03:21;1.20;;;1.10;;
48847;SDS011;36611;51.638;5.784;2023-04-22T08:05:48;1.30;;;1.20;;
48847;SDS011;36611;51.638;5.784;2023-04-22T08:08:15;1.02;;;0.90;;
48847;SDS011;36611;51.638;5.784;2023-04-22T08:10:41;1.15;;;1.00;;
48847;SDS011;36611;51.638;5.784;2023-04-22T08:13:08;0.90;;;0.90;;
48847;SDS011;36611;51.638;5.784;2023-04-22T08:15:35;1.20;;;1.10;;
48847;SDS011;36611;51.638;5.784;2023-04-22T08:18:01;0.90;;;0.90;;
48847;SDS011;36611;51.638;5.784;2023-04-22T08:20:28;1.13;;;1.02;;
48847;SDS011;36611;51.638;5.784;2023-04-22T08:22:54;1.38;;;1.10;;
48847;SDS011;36611;51.638;5.784;2023-04-22T08:25:26;1.20;;;0.98;;
48847;SDS011;36611;51.638;5.784;2023-04-22T08:27:53;0.80;;;0.80;;
48847;SDS011;36611;51.638;5.784;2023-04-22T08:30:19;1.00;;;0.90;;
48847;SDS011;36611;51.638;5.784;2023-04-22T08:32:46;1.55;;;1.23;;
48847;SDS011;36611;51.638;5.784;2023-04-22T08:35:12;0.98;;;0.90;;
48847;SDS011;36611;51.638;5.784;2023-04-22T08:37:39;1.30;;;0.90;;
48847;SDS011;36611;51.638;5.784;2023-04-22T08:40:07;1.30;;;1.10;;
48847;SDS011;36611;51.638;5.784;2023-04-22T08:42:34;1.10;;;1.00;;
48847;SDS011;36611;51.638;5.784;2023-04-22T08:45:02;1.15;;;0.95;;
48847;SDS011;36611;51.638;5.784;2023-04-22T08:47:30;1.10;;;0.90;;
48847;SDS011;36611;51.638;5.784;2023-04-22T08:49:58;1.73;;;1.00;;
48847;SDS011;36611;51.638;5.784;2023-04-22T08:52:31;1.23;;;1.02;;
48847;SDS011;36611;51.638;5.784;2023-04-22T08:54:58;1.77;;;1.02;;
48847;SDS011;36611;51.638;5.784;2023-04-22T08:57:25;1.00;;;0.90;;
48847;SDS011;36611;51.638;5.784;2023-04-22T08:59:52;1.05;;;0.80;;
48847;SDS011;36611;51.638;5.784;2023-04-22T09:02:21;1.52;;;1.08;;
48847;SDS011;36611;51.638;5.784;2023-04-22T09:04:50;1.10;;;0.98;;
48847;SDS011;36611;51.638;5.784;2023-04-22T09:07:21;1.13;;;0.93;;
48847;SDS011;36611;51.638;5.784;2023-04-22T09:09:50;1.25;;;1.15;;
48847;SDS011;36611;51.638;5.784;2023-04-22T09:12:17;1.23;;;1.02;;
48847;SDS011;36611;51.638;5.784;2023-04-22T09:14:44;1.17;;;1.08;;
48847;SDS011;36611;51.638;5.784;2023-04-22T09:17:13;0.93;;;0.90;;
48847;SDS011;36611;51.638;5.784;2023-04-22T09:19:42;0.90;;;0.90;;
48847;SDS011;36611;51.638;5.784;2023-04-22T09:22:12;1.92;;;1.10;;
48847;SDS011;36611;51.638;5.784;2023-04-22T09:24:50;1.33;;;1.00;;
48847;SDS011;36611;51.638;5.784;2023-04-22T09:27:19;1.10;;;1.00;;
48847;SDS011;36611;51.638;5.784;2023-04-22T09:29:49;1.00;;;0.90;;
48847;SDS011;36611;51.638;5.784;2023-04-22T09:32:17;1.23;;;0.95;;
48847;SDS011;36611;51.638;5.784;2023-04-22T09:34:48;1.20;;;1.00;;
48847;SDS011;36611;51.638;5.784;2023-04-22T09:37:25;1.20;;;1.00;;
48847;SDS011;36611;51.638;5.784;2023-04-22T09:40:07;1.02;;;0.90;;
48847;SDS011;36611;51.638;5.784;2023-04-22T09:42:34;1.10;;;1.00;;
48847;SDS011;36611;51.638;5.784;2023-04-22T09:45:14;1.02;;;0.93;;
48847;SDS011;36611;51.638;5.784;2023-04-22T09:47:50;0.93;;;0.85;;
48847;SDS011;36611;51.638;5.784;2023-04-22T09:50:19;1.10;;;1.00;;
48847;SDS011;36611;51.638;5.784;2023-04-22T09:52:53;1.10;;;1.00;;
48847;SDS011;36611;51.638;5.784;2023-04-22T09:55:25;1.10;;;1.00;;
48847;SDS011;36611;51.638;5.784;2023-04-22T09:57:53;0.85;;;0.80;;
48847;SDS011;36611;51.638;5.784;2023-04-22T10:00:27;0.82;;;0.80;;
48847;SDS011;36611;51.638;5.784;2023-04-22T10:02:55;0.98;;;0.85;;
48847;SDS011;36611;51.638;5.784;2023-04-22T10:05:21;1.08;;;0.90;;
48847;SDS011;36611;51.638;5.784;2023-04-22T10:07:49;0.93;;;0.77;;
48847;SDS011;36611;51.638;5.784;2023-04-22T10:10:16;1.17;;;0.90;;
48847;SDS011;36611;51.638;5.784;2023-04-22T10:12:43;0.80;;;0.80;;
48847;SDS011;36611;51.638;5.784;2023-04-22T10:15:10;1.20;;;0.90;;
48847;SDS011;36611;51.638;5.784;2023-04-22T10:17:37;1.10;;;0.98;;
48847;SDS011;36611;51.638;5.784;2023-04-22T10:20:06;0.80;;;0.80;;
48847;SDS011;36611;51.638;5.784;2023-04-22T10:22:39;1.00;;;0.90;;
48847;SDS011;36611;51.638;5.784;2023-04-22T10:25:11;1.05;;;0.80;;
48847;SDS011;36611;51.638;5.784;2023-04-22T10:27:39;0.90;;;0.80;;
48847;SDS011;36611;51.638;5.784;2023-04-22T10:30:06;1.08;;;0.98;;
48847;SDS011;36611;51.638;5.784;2023-04-22T10:32:34;0.98;;;0.93;;
48847;SDS011;36611;51.638;5.784;2023-04-22T10:35:07;0.85;;;0.60;;
48847;SDS011;36611;51.638;5.784;2023-04-22T10:37:39;0.80;;;0.80;;
48847;SDS011;36611;51.638;5.784;2023-04-22T10:40:16;0.80;;;0.80;;
48847;SDS011;36611;51.638;5.784;2023-04-22T10:42:51;1.00;;;0.90;;
48847;SDS011;36611;51.638;5.784;2023-04-22T10:45:19;1.02;;;0.90;;
48847;SDS011;36611;51.638;5.784;2023-04-22T10:47:50;1.00;;;0.90;;
48847;SDS011;36611;51.638;5.784;2023-04-22T10:50:21;1.20;;;0.85;;
48847;SDS011;36611;51.638;5.784;2023-04-22T10:53:33;1.00;;;0.90;;
48847;SDS011;36611;51.638;5.784;2023-04-22T10:56:01;0.90;;;0.90;;
48847;SDS011;36611;51.638;5.784;2023-04-22T10:58:28;1.10;;;0.95;;
48847;SDS011;36611;51.638;5.784;2023-04-22T11:00:58;0.88;;;0.88;;
48847;SDS011;36611;51.638;5.784;2023-04-22T11:03:28;1.08;;;0.98;;
48847;SDS011;36611;51.638;5.784;2023-04-22T11:06:15;1.10;;;1.00;;
48847;SDS011;36611;51.638;5.784;2023-04-22T11:08:47;1.00;;;0.90;;
48847;SDS011;36611;51.638;5.784;2023-04-22T11:11:15;1.35;;;0.90;;
48847;SDS011;36611;51.638;5.784;2023-04-22T11:13:44;1.23;;;0.90;;
48847;SDS011;36611;51.638;5.784;2023-04-22T11:16:15;1.00;;;0.90;;
48847;SDS011;36611;51.638;5.784;2023-04-22T11:18:47;1.27;;;1.00;;
48847;SDS011;36611;51.638;5.784;2023-04-22T11:21:14;1.17;;;0.90;;
48847;SDS011;36611;51.638;5.784;2023-04-22T11:23:48;1.05;;;0.90;;
48847;SDS011;36611;51.638;5.784;2023-04-22T11:26:17;0.80;;;0.80;;
48847;SDS011;36611;51.638;5.784;2023-04-22T11:28:47;0.88;;;0.80;;
48847;SDS011;36611;51.638;5.784;2023-04-22T11:31:13;1.10;;;0.90;;
48847;SDS011;36611;51.638;5.784;2023-04-22T11:33:40;0.90;;;0.90;;
48847;SDS011;36611;51.638;5.784;2023-04-22T11:36:09;1.00;;;0.90;;
48847;SDS011;36611;51.638;5.784;2023-04-22T11:38:37;1.00;;;0.90;;
48847;SDS011;36611;51.638;5.784;2023-04-22T11:41:03;1.27;;;1.00;;
48847;SDS011;36611;51.638;5.784;2023-04-22T11:43:30;0.95;;;0.85;;
48847;SDS011;36611;51.638;5.784;2023-04-22T11:45:57;0.90;;;0.80;;
48847;SDS011;36611;51.638;5.784;2023-04-22T11:48:24;1.27;;;0.90;;
48847;SDS011;36611;51.638;5.784;2023-04-22T11:51:05;1.15;;;0.82;;
48847;SDS011;36611;51.638;5.784;2023-04-22T11:53:35;0.98;;;0.70;;
48847;SDS011;36611;51.638;5.784;2023-04-22T11:56:04;1.33;;;0.90;;
48847;SDS011;36611;51.638;5.784;2023-04-22T11:58:30;1.00;;;0.90;;
48847;SDS011;36611;51.638;5.784;2023-04-22T12:00:57;0.85;;;0.80;;
48847;SDS011;36611;51.638;5.784;2023-04-22T12:03:25;1.25;;;1.13;;
48847;SDS011;36611;51.638;5.784;2023-04-22T12:05:57;0.98;;;0.85;;
48847;SDS011;36611;51.638;5.784;2023-04-22T12:08:29;0.85;;;0.73;;
48847;SDS011;36611;51.638;5.784;2023-04-22T12:10:58;1.00;;;0.90;;
48847;SDS011;36611;51.638;5.784;2023-04-22T12:13:28;0.90;;;0.85;;
48847;SDS011;36611;51.638;5.784;2023-04-22T12:15:59;1.20;;;1.10;;
48847;SDS011;36611;51.638;5.784;2023-04-22T12:18:37;0.90;;;0.80;;
48847;SDS011;36611;51.638;5.784;2023-04-22T12:21:11;1.05;;;0.90;;
48847;SDS011;36611;51.638;5.784;2023-04-22T12:23:46;0.75;;;0.73;;
48847;SDS011;36611;51.638;5.784;2023-04-22T12:26:18;0.77;;;0.77;;
48847;SDS011;36611;51.638;5.784;2023-04-22T12:28:49;1.08;;;0.90;;
48847;SDS011;36611;51.638;5.784;2023-04-22T12:31:16;1.10;;;1.00;;
48847;SDS011;36611;51.638;5.784;2023-04-22T12:33:44;1.00;;;0.90;;
48847;SDS011;36611;51.638;5.784;2023-04-22T12:36:12;0.80;;;0.80;;
48847;SDS011;36611;51.638;5.784;2023-04-22T12:38:38;1.20;;;1.02;;
48847;SDS011;36611;51.638;5.784;2023-04-22T12:41:05;1.55;;;1.00;;
48847;SDS011;36611;51.638;5.784;2023-04-22T12:43:33;1.48;;;1.13;;
48847;SDS011;36611;51.638;5.784;2023-04-22T12:46:02;1.00;;;0.90;;
48847;SDS011;36611;51.638;5.784;2023-04-22T12:48:29;0.93;;;0.80;;
48847;SDS011;36611;51.638;5.784;2023-04-22T12:50:56;0.90;;;0.70;;
48847;SDS011;36611;51.638;5.784;2023-04-22T12:53:24;1.15;;;0.98;;
48847;SDS011;36611;51.638;5.784;2023-04-22T12:55:52;1.02;;;0.90;;
48847;SDS011;36611;51.638;5.784;2023-04-22T12:58:19;2.15;;;1.00;;
48847;SDS011;36611;51.638;5.784;2023-04-22T13:00:45;1.02;;;0.90;;
48847;SDS011;36611;51.638;5.784;2023-04-22T13:03:12;1.13;;;1.02;;
48847;SDS011;36611;51.638;5.784;2023-04-22T13:05:39;1.45;;;1.00;;
48847;SDS011;36611;51.638;5.784;2023-04-22T13:08:05;1.00;;;0.90;;
48847;SDS011;36611;51.638;5.784;2023-04-22T13:10:33;0.90;;;0.80;;
48847;SDS011;36611;51.638;5.784;2023-04-22T13:13:00;2.13;;;0.90;;
48847;SDS011;36611;51.638;5.784;2023-04-22T13:15:43;1.05;;;0.93;;
48847;SDS011;36611;51.638;5.784;2023-04-22T13:18:10;1.17;;;0.93;;
48847;SDS011;36611;51.638;5.784;2023-04-22T13:20:37;1.08;;;0.98;;
48847;SDS011;36611;51.638;5.784;2023-04-22T13:23:03;1.00;;;0.90;;
48847;SDS011;36611;51.638;5.784;2023-04-22T13:25:30;1.00;;;0.88;;
48847;SDS011;36611;51.638;5.784;2023-04-22T13:27:57;0.90;;;0.80;;
48847;SDS011;36611;51.638;5.784;2023-04-22T13:30:23;1.00;;;0.90;;
48847;SDS011;36611;51.638;5.784;2023-04-22T13:32:50;0.90;;;0.90;;
48847;SDS011;36611;51.638;5.784;2023-04-22T13:35:17;1.83;;;0.90;;
48847;SDS011;36611;51.638;5.784;2023-04-22T13:37:43;1.10;;;0.95;;
48847;SDS011;36611;51.638;5.784;2023-04-22T13:40:11;1.00;;;0.90;;
48847;SDS011;36611;51.638;5.784;2023-04-22T13:42:38;1.10;;;0.82;;
48847;SDS011;36611;51.638;5.784;2023-04-22T13:45:05;1.88;;;0.90;;
48847;SDS011;36611;51.638;5.784;2023-04-22T13:47:32;1.02;;;0.93;;
48847;SDS011;36611;51.638;5.784;2023-04-22T13:49:59;1.05;;;0.85;;
48847;SDS011;36611;51.638;5.784;2023-04-22T13:52:27;1.00;;;0.70;;
48847;SDS011;36611;51.638;5.784;2023-04-22T13:54:54;1.10;;;1.00;;
48847;SDS011;36611;51.638;5.784;2023-04-22T13:57:20;0.80;;;0.80;;
48847;SDS011;36611;51.638;5.784;2023-04-22T13:59:48;1.00;;;0.82;;
48847;SDS011;36611;51.638;5.784;2023-04-22T14:02:15;1.05;;;0.90;;
48847;SDS011;36611;51.638;5.784;2023-04-22T14:04:42;1.27;;;0.85;;
48847;SDS011;36611;51.638;5.784;2023-04-22T14:07:09;1.10;;;1.00;;
48847;SDS011;36611;51.638;5.784;2023-04-22T14:09:36;1.40;;;0.80;;
48847;SDS011;36611;51.638;5.784;2023-04-22T14:12:03;1.00;;;0.88;;
48847;SDS011;36611;51.638;5.784;2023-04-22T14:14:32;1.13;;;1.00;;
48847;SDS011;36611;51.638;5.784;2023-04-22T14:16:58;0.95;;;0.80;;
48847;SDS011;36611;51.638;5.784;2023-04-22T14:19:25;0.90;;;0.80;;
48847;SDS011;36611;51.638;5.784;2023-04-22T14:21:54;0.70;;;0.70;;
48847;SDS011;36611;51.638;5.784;2023-04-22T14:24:21;0.95;;;0.82;;
48847;SDS011;36611;51.638;5.784;2023-04-22T14:26:49;1.35;;;1.00;;
48847;SDS011;36611;51.638;5.784;2023-04-22T14:29:19;0.80;;;0.75;;
48847;SDS011;36611;51.638;5.784;2023-04-22T14:31:46;1.00;;;0.90;;
48847;SDS011;36611;51.638;5.784;2023-04-22T14:34:15;1.10;;;1.00;;
48847;SDS011;36611;51.638;5.784;2023-04-22T14:36:42;1.77;;;0.80;;
48847;SDS011;36611;51.638;5.784;2023-04-22T14:39:09;0.75;;;0.75;;
48847;SDS011;36611;51.638;5.784;2023-04-22T14:41:35;0.95;;;0.90;;
48847;SDS011;36611;51.638;5.784;2023-04-22T14:44:02;1.25;;;0.80;;
48847;SDS011;36611;51.638;5.784;2023-04-22T14:46:28;0.85;;;0.80;;
48847;SDS011;36611;51.638;5.784;2023-04-22T14:48:55;1.20;;;1.10;;
48847;SDS011;36611;51.638;5.784;2023-04-22T14:51:22;1.25;;;1.00;;
48847;SDS011;36611;51.638;5.784;2023-04-22T14:53:50;0.80;;;0.80;;
48847;SDS011;36611;51.638;5.784;2023-04-22T14:56:17;1.77;;;0.90;;
48847;SDS011;36611;51.638;5.784;2023-04-22T14:58:44;1.23;;;0.98;;